Time;durP1;ratioP1;P1;durP2;ratioP2;P2;SDS_P1;SDS_P2;PMS_P1;PMS_P2;Temp;Humidity;BMP_temperature;BMP_pressure;BME280_temperature;BME280_humidity;BME280_pressure;Samples;Min_cycle;Max_cycle;Signal;HPM_P1;HPM_P2
2023/10/19 00:01:59;;;;;;;;;;;;;;;10.43;100.00;99142.03;5095585;28;19917;-57
2023/10/19 00:04:32;;;;;;;;;;;;;;;10.44;100.00;99138.59;5095516;28;19916;-57
2023/10/19 00:06:58;;;;;;;;;;;;;;;10.47;100.00;99136.91;5094924;28;19923;-57
2023/10/19 00:09:23;;;;;;;;;;;;;;;10.49;100.00;99132.59;5095157;28;19920;-57
2023/10/19 00:11:51;;;;;;;;;;;;;;;10.52;100.00;99129.16;5094673;28;19999;-57
2023/10/19 00:14:20;;;;;;;;;;;;;;;10.53;100.00;99134.34;5094970;28;20356;-57
2023/10/19 00:16:53;;;;;;;;;;;;;;;10.56;100.00;99137.75;5095600;28;19931;-57
2023/10/19 00:19:19;;;;;;;;;;;;;;;10.57;100.00;99144.63;5094434;28;19916;-57
2023/10/19 00:21:50;;;;;;;;;;;;;;;10.59;100.00;99150.63;5095298;28;19927;-57
2023/10/19 00:24:22;;;;;;;;;;;;;;;10.61;100.00;99147.19;5094890;28;20398;-57
2023/10/19 00:26:48;;;;;;;;;;;;;;;10.61;100.00;99126.59;5094400;28;20006;-57
2023/10/19 00:29:32;;;;;;;;;;;;;;;10.64;100.00;99128.31;5095003;28;19920;-57
2023/10/19 00:31:59;;;;;;;;;;;;;;;10.70;100.00;99120.59;5095044;28;20374;-57
2023/10/19 00:34:25;;;;;;;;;;;;;;;10.78;100.00;99134.38;5093998;28;19954;-57
2023/10/19 00:36:51;;;;;;;;;;;;;;;10.85;100.00;99125.78;5095040;28;19912;-57
2023/10/19 00:39:21;;;;;;;;;;;;;;;10.90;100.00;99128.38;5094484;28;20413;-57
2023/10/19 00:41:47;;;;;;;;;;;;;;;10.93;100.00;99123.19;5094233;28;19974;-57
2023/10/19 00:44:12;;;;;;;;;;;;;;;10.94;100.00;99124.91;5094744;28;19977;-57
2023/10/19 00:46:43;;;;;;;;;;;;;;;10.97;100.00;99124.06;5094970;28;20318;-57
2023/10/19 00:49:09;;;;;;;;;;;;;;;10.98;100.00;99125.78;5094237;28;19927;-57
2023/10/19 00:51:53;;;;;;;;;;;;;;;10.99;100.00;99120.63;5094612;28;19920;-57
2023/10/19 00:54:35;;;;;;;;;;;;;;;11.01;100.00;99125.78;5093808;28;19922;-57
2023/10/19 00:57:06;;;;;;;;;;;;;;;11.03;100.00;99124.06;5094562;28;20343;-57
2023/10/19 00:59:35;;;;;;;;;;;;;;;11.06;100.00;99126.63;5093972;28;19963;-57
2023/10/19 01:02:20;;;;;;;;;;;;;;;11.11;100.00;99127.50;5093684;28;19916;-57
2023/10/19 01:04:50;;;;;;;;;;;;;;;11.16;100.00;99124.94;5094639;28;19916;-57
2023/10/19 01:07:21;;;;;;;;;;;;;;;11.20;100.00;99117.16;5094359;28;19923;-57
2023/10/19 01:09:46;;;;;;;;;;;;;;;11.25;100.00;99113.75;5093651;28;19916;-57
2023/10/19 01:15:12;;;;;;;;;;;;;;;11.39;100.00;99122.31;5094481;28;20282;-57
2023/10/19 01:17:40;;;;;;;;;;;;;;;11.46;100.00;99116.28;5094389;28;20018;-57
2023/10/19 01:25:50;;;;;;;;;;;;;;;11.67;100.00;99119.66;5093768;28;19923;-57
2023/10/19 01:28:17;;;;;;;;;;;;;;;11.75;100.00;99110.19;5093789;28;20011;-57
2023/10/19 01:30:42;;;;;;;;;;;;;;;11.81;100.00;99109.31;5093234;28;20257;-57
2023/10/19 01:33:12;;;;;;;;;;;;;;;11.86;100.00;99098.13;5094058;28;20444;-57
2023/10/19 01:38:21;;;;;;;;;;;;;;;11.98;100.00;99101.53;5093150;28;19929;-57
2023/10/19 01:40:48;;;;;;;;;;;;;;;12.06;100.00;99099.78;5093914;28;20014;-58
2023/10/19 01:43:20;;;;;;;;;;;;;;;12.13;100.00;99101.47;5092836;28;19916;-58
2023/10/19 01:45:46;;;;;;;;;;;;;;;12.19;100.00;99101.44;5093633;28;20379;-57
2023/10/19 01:48:12;;;;;;;;;;;;;;;12.25;100.00;99104.84;5092820;28;19963;-57
2023/10/19 01:50:39;;;;;;;;;;;;;;;12.30;100.00;99103.09;5093013;28;19916;-57
2023/10/19 01:53:12;;;;;;;;;;;;;;;12.34;100.00;99104.78;5093732;28;20378;-57
2023/10/19 01:55:38;;;;;;;;;;;;;;;12.40;100.00;99104.75;5093881;28;19916;-57
2023/10/19 01:58:03;;;;;;;;;;;;;;;12.43;100.00;99104.72;5092850;28;19969;-57
2023/10/19 02:00:28;;;;;;;;;;;;;;;12.44;100.00;99096.13;5090760;28;19927;-57
2023/10/19 02:02:53;;;;;;;;;;;;;;;12.49;100.00;99099.53;5093487;28;19945;-58
2023/10/19 02:05:19;;;;;;;;;;;;;;;12.54;100.00;99101.22;5092592;28;20276;-57
2023/10/19 02:07:44;;;;;;;;;;;;;;;12.58;100.00;99108.13;5093567;28;19920;-57
2023/10/19 02:10:10;;;;;;;;;;;;;;;12.63;100.00;99096.88;5093657;28;19969;-57
2023/10/19 02:12:35;;;;;;;;;;;;;;;12.66;100.00;99102.00;5092636;28;20406;-57
2023/10/19 02:15:00;;;;;;;;;;;;;;;12.70;100.00;99105.44;5093334;28;19916;-57
2023/10/19 02:17:26;;;;;;;;;;;;;;;12.74;100.00;99103.69;5093241;28;19916;-57
2023/10/19 02:19:51;;;;;;;;;;;;;;;12.77;100.00;99099.34;5092550;28;19916;-57
2023/10/19 02:22:17;;;;;;;;;;;;;;;12.79;100.00;99101.91;5093022;28;19999;-57
2023/10/19 02:24:42;;;;;;;;;;;;;;;12.82;100.00;99101.88;5093635;28;19961;-57
2023/10/19 02:27:07;;;;;;;;;;;;;;;12.84;100.00;99097.56;5092565;28;20015;-57
2023/10/19 02:29:32;;;;;;;;;;;;;;;12.84;100.00;99095.00;5092893;28;19916;-57
2023/10/19 02:32:03;;;;;;;;;;;;;;;12.87;100.00;99089.78;5093217;28;20002;-57
2023/10/19 02:34:29;;;;;;;;;;;;;;;12.88;100.00;99085.50;5092295;28;20002;-57
2023/10/19 02:36:54;;;;;;;;;;;;;;;12.89;100.00;99092.38;5093287;28;19959;-57
2023/10/19 02:39:20;;;;;;;;;;;;;;;12.89;100.00;99093.22;5092946;28;20322;-57
2023/10/19 02:41:48;;;;;;;;;;;;;;;12.90;100.00;99094.94;5092185;28;19916;-57
2023/10/19 02:46:42;;;;;;;;;;;;;;;12.93;100.00;99089.75;5092503;28;20014;-57
2023/10/19 02:49:11;;;;;;;;;;;;;;;12.95;100.00;99092.31;5093238;28;20026;-57
2023/10/19 02:51:41;;;;;;;;;;;;;;;12.94;100.00;99085.44;5093185;28;19916;-58
2023/10/19 02:54:07;;;;;;;;;;;;;;;12.96;100.00;99086.28;5092202;28;20376;-57
2023/10/19 02:56:35;;;;;;;;;;;;;;;12.96;100.00;99083.69;5092723;28;19931;-57
2023/10/19 02:59:03;;;;;;;;;;;;;;;12.99;100.00;99094.03;5093284;28;19916;-57
2023/10/19 03:01:31;;;;;;;;;;;;;;;13.01;100.00;99087.09;5095505;28;19920;-57
2023/10/19 03:03:59;;;;;;;;;;;;;;;13.02;100.00;99086.22;5096715;28;19923;-58
2023/10/19 03:06:25;;;;;;;;;;;;;;;13.05;100.00;99083.59;5096372;28;20318;-58
2023/10/19 03:11:35;;;;;;;;;;;;;;;13.10;100.00;99080.97;5096652;28;19934;-57
2023/10/19 03:14:04;;;;;;;;;;;;;;;13.11;100.00;99080.13;5096896;28;19916;-57
2023/10/19 03:16:30;;;;;;;;;;;;;;;13.12;100.00;99080.09;5095733;28;20464;-57
2023/10/19 03:18:55;;;;;;;;;;;;;;;13.13;100.00;99087.00;5096674;28;19923;-57
2023/10/19 03:21:26;;;;;;;;;;;;;;;13.13;100.00;99081.81;5096184;28;19916;-57
2023/10/19 03:23:51;;;;;;;;;;;;;;;13.14;100.00;99083.53;5095709;28;19916;-57
2023/10/19 03:26:36;;;;;;;;;;;;;;;13.14;100.00;99078.38;5096277;28;19916;-58
2023/10/19 03:29:07;;;;;;;;;;;;;;;13.14;100.00;99078.38;5095781;28;19946;-58
2023/10/19 03:31:32;;;;;;;;;;;;;;;13.15;100.00;99068.88;5096281;28;19923;-57
2023/10/19 03:33:59;;;;;;;;;;;;;;;13.14;100.00;99068.03;5096329;28;19916;-57
2023/10/19 03:36:24;;;;;;;;;;;;;;;13.13;100.00;99065.41;5095198;28;19923;-58
2023/10/19 03:38:53;;;;;;;;;;;;;;;13.12;100.00;99059.41;5095983;28;20275;-57
2023/10/19 03:41:21;;;;;;;;;;;;;;;13.11;100.00;99064.59;5095894;28;19985;-57
2023/10/19 03:43:46;;;;;;;;;;;;;;;13.11;100.00;99062.00;5095389;28;19920;-58
2023/10/19 03:46:24;;;;;;;;;;;;;;;13.09;100.00;99056.88;5095806;28;19923;-58
2023/10/19 03:48:49;;;;;;;;;;;;;;;13.08;100.00;99056.84;5095983;28;19920;-58
2023/10/19 03:51:14;;;;;;;;;;;;;;;13.07;100.00;99065.50;5095023;28;19916;-57
2023/10/19 03:53:55;;;;;;;;;;;;;;;13.05;100.00;99068.09;5096047;28;20368;-57
2023/10/19 03:56:20;;;;;;;;;;;;;;;13.04;100.00;99058.63;5095606;28;19916;-58
2023/10/19 03:58:50;;;;;;;;;;;;;;;13.01;100.00;99058.63;5095128;28;19923;-57
2023/10/19 04:01:16;;;;;;;;;;;;;;;12.98;100.00;99056.09;5095164;28;20337;-57
2023/10/19 04:03:41;;;;;;;;;;;;;;;12.96;100.00;99058.69;5095728;28;19923;-58
2023/10/19 04:06:13;;;;;;;;;;;;;;;12.92;100.00;99051.81;5095131;28;19912;-58
2023/10/19 04:08:38;;;;;;;;;;;;;;;12.89;100.00;99051.00;5095730;28;19920;-57
2023/10/19 04:11:21;;;;;;;;;;;;;;;12.85;100.00;99050.19;5094389;28;19927;-57
2023/10/19 04:13:46;;;;;;;;;;;;;;;12.81;100.00;99046.75;5095464;28;19934;-57
2023/10/19 04:16:12;;;;;;;;;;;;;;;12.76;100.00;99040.75;5095021;28;20356;-57
2023/10/19 04:18:38;;;;;;;;;;;;;;;12.69;100.00;99044.25;5094787;28;19912;-58
2023/10/19 04:21:04;;;;;;;;;;;;;;;12.62;100.00;99047.78;5095366;28;20388;-57
2023/10/19 04:23:34;;;;;;;;;;;;;;;12.58;100.00;99051.25;5095038;28;19917;-57
2023/10/19 04:26:04;;;;;;;;;;;;;;;12.52;100.00;99047.84;5094394;28;20334;-57
2023/10/19 04:28:44;;;;;;;;;;;;;;;12.49;100.00;99045.28;5094835;28;20390;-58
2023/10/19 04:31:13;;;;;;;;;;;;;;;12.47;100.00;99046.16;5095199;28;19923;-57
2023/10/19 04:33:38;;;;;;;;;;;;;;;12.44;100.00;99049.63;5094724;28;19970;-57
2023/10/19 04:36:08;;;;;;;;;;;;;;;12.43;100.00;99047.91;5095263;28;19920;-57
2023/10/19 04:38:33;;;;;;;;;;;;;;;12.42;100.00;99050.50;5094885;28;19916;-57
2023/10/19 04:41:08;;;;;;;;;;;;;;;12.39;100.00;99048.78;5093971;28;19969;-57
2023/10/19 04:43:35;;;;;;;;;;;;;;;12.38;100.00;99047.06;5094759;28;19916;-57
2023/10/19 04:46:07;;;;;;;;;;;;;;;12.39;100.00;99051.38;5094570;28;20424;-57
2023/10/19 04:48:32;;;;;;;;;;;;;;;12.40;100.00;99050.50;5094421;28;20288;-57
2023/10/19 04:50:58;;;;;;;;;;;;;;;12.42;100.00;99051.38;5094911;28;19917;-57
2023/10/19 04:53:23;;;;;;;;;;;;;;;12.46;100.00;99053.06;5093710;28;20012;-57
2023/10/19 04:55:48;;;;;;;;;;;;;;;12.47;100.00;99054.78;5094925;28;19923;-57
2023/10/19 04:58:13;;;;;;;;;;;;;;;12.49;100.00;99052.19;5094544;28;20011;-58
2023/10/19 05:00:38;;;;;;;;;;;;;;;12.55;100.00;99056.44;5093477;28;20006;-57
2023/10/19 05:03:03;;;;;;;;;;;;;;;12.58;100.00;99057.28;5094573;28;19916;-57
2023/10/19 05:05:29;;;;;;;;;;;;;;;12.60;100.00;99065.88;5094257;28;19974;-58
2023/10/19 05:07:54;;;;;;;;;;;;;;;12.65;100.00;99063.25;5093727;28;19927;-57
2023/10/19 05:10:19;;;;;;;;;;;;;;;12.69;100.00;99062.34;5093980;28;19920;-58
2023/10/19 05:12:44;;;;;;;;;;;;;;;12.71;100.00;99067.53;5094265;28;19924;-57
2023/10/19 05:15:10;;;;;;;;;;;;;;;12.70;100.00;99066.66;5093384;28;19916;-57
2023/10/19 05:17:35;;;;;;;;;;;;;;;12.70;100.00;99061.50;5094424;28;19916;-57
2023/10/19 05:20:00;;;;;;;;;;;;;;;12.70;100.00;99065.81;5094345;28;19916;-58
2023/10/19 05:22:29;;;;;;;;;;;;;;;12.69;100.00;99070.09;5092326;28;20422;-57
2023/10/19 05:24:54;;;;;;;;;;;;;;;12.69;100.00;99070.09;5094155;28;20452;-58
2023/10/19 05:27:19;;;;;;;;;;;;;;;12.69;100.00;99067.53;5093977;28;19916;-58
2023/10/19 05:29:45;;;;;;;;;;;;;;;12.68;100.00;99069.25;5093357;28;19919;-58
2023/10/19 05:32:10;;;;;;;;;;;;;;;12.67;100.00;99061.53;5093469;28;19916;-57
2023/10/19 05:34:36;;;;;;;;;;;;;;;12.67;100.00;99061.53;5093997;28;20359;-58
2023/10/19 05:37:05;;;;;;;;;;;;;;;12.65;100.00;99066.72;5093182;28;19973;-57
2023/10/19 05:39:31;;;;;;;;;;;;;;;12.66;100.00;99067.56;5093507;28;20384;-57
2023/10/19 05:42:00;;;;;;;;;;;;;;;12.67;100.00;99071.88;5094032;28;19916;-57
2023/10/19 05:44:25;;;;;;;;;;;;;;;12.65;100.00;99078.75;5092849;28;19920;-57
2023/10/19 05:46:51;;;;;;;;;;;;;;;12.65;100.00;99073.59;5093905;28;19939;-57
2023/10/19 05:49:16;;;;;;;;;;;;;;;12.66;100.00;99085.66;5093491;28;20288;-57
2023/10/19 05:51:44;;;;;;;;;;;;;;;12.66;100.00;99095.97;5092823;28;19923;-57
2023/10/19 05:54:09;;;;;;;;;;;;;;;12.67;100.00;99082.19;5093825;28;20006;-57
2023/10/19 05:56:34;;;;;;;;;;;;;;;12.67;100.00;99084.78;5092751;28;19959;-57
2023/10/19 05:59:00;;;;;;;;;;;;;;;12.67;100.00;99084.78;5093802;28;20003;-57
2023/10/19 06:01:26;;;;;;;;;;;;;;;12.68;100.00;99084.78;5093019;28;19928;-58
2023/10/19 06:03:51;;;;;;;;;;;;;;;12.69;100.00;99088.19;5092719;28;19961;-57
2023/10/19 06:06:16;;;;;;;;;;;;;;;12.68;100.00;99084.78;5093186;28;20256;-57
2023/10/19 06:08:42;;;;;;;;;;;;;;;12.68;100.00;99089.09;5093640;28;20282;-57
2023/10/19 06:11:07;;;;;;;;;;;;;;;12.68;100.00;99094.25;5092731;28;20424;-57
2023/10/19 06:13:32;;;;;;;;;;;;;;;12.68;100.00;99089.94;5093265;28;19917;-58
2023/10/19 06:15:57;;;;;;;;;;;;;;;12.67;100.00;99087.38;5093439;28;19916;-57
2023/10/19 06:18:22;;;;;;;;;;;;;;;12.66;100.00;99093.41;5092239;28;19923;-58
2023/10/19 06:20:50;;;;;;;;;;;;;;;12.66;100.00;99101.16;5093215;28;20397;-57
2023/10/19 06:23:16;;;;;;;;;;;;;;;12.64;100.00;99101.16;5092876;28;20372;-58
2023/10/19 06:25:43;;;;;;;;;;;;;;;12.64;100.00;99103.75;5092422;28;19916;-58
2023/10/19 06:28:08;;;;;;;;;;;;;;;12.65;100.00;99099.44;5093262;28;20036;-58
2023/10/19 06:30:33;;;;;;;;;;;;;;;12.66;100.00;99096.84;5093085;28;20376;-57
2023/10/19 06:33:02;;;;;;;;;;;;;;;12.66;100.00;99090.81;5092618;28;19916;-58
2023/10/19 06:35:28;;;;;;;;;;;;;;;12.67;100.00;99093.38;5097000;28;19924;-58
2023/10/19 06:37:58;;;;;;;;;;;;;;;12.68;100.00;99096.84;5097500;28;19919;-58
2023/10/19 06:40:24;;;;;;;;;;;;;;;12.68;100.00;99102.84;5096129;28;20286;-58
2023/10/19 06:42:50;;;;;;;;;;;;;;;12.69;100.00;99106.28;5097362;28;19938;-58
2023/10/19 06:45:16;;;;;;;;;;;;;;;12.70;100.00;99113.19;5096993;28;19916;-58
2023/10/19 06:47:42;;;;;;;;;;;;;;;12.72;100.00;99114.03;5096239;28;19916;-58
2023/10/19 06:50:10;;;;;;;;;;;;;;;12.72;100.00;99115.75;5097037;28;20006;-58
2023/10/19 06:52:35;;;;;;;;;;;;;;;12.72;100.00;99103.69;5097266;28;19922;-58
2023/10/19 06:55:02;;;;;;;;;;;;;;;12.73;100.00;99113.19;5096498;28;19995;-58
2023/10/19 06:57:27;;;;;;;;;;;;;;;12.74;100.00;99109.69;5096845;28;19916;-58
2023/10/19 06:59:52;;;;;;;;;;;;;;;12.76;100.00;99107.97;5095993;28;19969;-58
2023/10/19 07:02:20;;;;;;;;;;;;;;;12.77;100.00;99112.28;5096742;28;19960;-57
2023/10/19 07:04:45;;;;;;;;;;;;;;;12.79;100.00;99113.09;5096698;28;19920;-58
2023/10/19 07:07:10;;;;;;;;;;;;;;;12.82;100.00;99119.97;5095784;28;19916;-57
2023/10/19 07:09:36;;;;;;;;;;;;;;;12.85;100.00;99126.00;5096599;28;19917;-57
2023/10/19 07:12:01;;;;;;;;;;;;;;;12.89;100.00;99126.00;5096770;28;19922;-58
2023/10/19 07:14:27;;;;;;;;;;;;;;;12.92;100.00;99124.22;5095560;28;20363;-58
2023/10/19 07:16:52;;;;;;;;;;;;;;;12.97;100.00;99124.19;5096613;28;19922;-57
2023/10/19 07:19:17;;;;;;;;;;;;;;;13.01;100.00;99129.34;5096362;28;19939;-57
2023/10/19 07:21:48;;;;;;;;;;;;;;;13.07;100.00;99128.41;5095808;28;19961;-57
2023/10/19 07:24:13;;;;;;;;;;;;;;;13.11;100.00;99124.94;5096327;28;19916;-57
2023/10/19 07:26:53;;;;;;;;;;;;;;;13.14;100.00;99132.69;5096527;28;19923;-58
2023/10/19 07:29:19;;;;;;;;;;;;;;;13.17;100.00;99131.81;5095289;28;19924;-58
2023/10/19 07:31:44;;;;;;;;;;;;;;;13.19;100.00;99119.69;5096245;28;19916;-57
2023/10/19 07:34:12;;;;;;;;;;;;;;;13.22;100.00;99126.56;5096447;28;19922;-58
2023/10/19 07:36:38;;;;;;;;;;;;;;;13.24;100.00;99122.25;5095289;28;20355;-58
2023/10/19 07:39:03;;;;;;;;;;;;;;;13.25;100.00;99116.22;5096063;28;20023;-57
2023/10/19 07:41:33;;;;;;;;;;;;;;;13.27;100.00;99111.88;5095769;28;20010;-57
2023/10/19 07:43:58;;;;;;;;;;;;;;;13.29;100.00;99107.53;5095249;28;20260;-57
2023/10/19 07:46:23;;;;;;;;;;;;;;;13.32;100.00;99120.44;5094735;28;19923;-57
2023/10/19 07:48:48;;;;;;;;;;;;;;;13.35;100.00;99115.25;5096158;28;19916;-57
2023/10/19 07:51:14;;;;;;;;;;;;;;;13.38;100.00;99122.16;5094845;28;19923;-58
2023/10/19 07:53:39;;;;;;;;;;;;;;;13.41;100.00;99117.78;5096000;28;20390;-57
2023/10/19 07:56:05;;;;;;;;;;;;;;;13.46;100.00;99118.59;5095068;28;20399;-58
2023/10/19 07:58:31;;;;;;;;;;;;;;;13.54;100.00;99112.50;5095522;28;19981;-57
2023/10/19 08:00:56;;;;;;;;;;;;;;;13.59;100.00;99118.50;5095356;28;19973;-57
2023/10/19 08:03:21;;;;;;;;;;;;;;;13.64;100.00;99114.97;5094710;28;19920;-58
2023/10/19 08:05:47;;;;;;;;;;;;;;;13.69;100.00;99107.16;5095708;28;19920;-58
2023/10/19 08:08:12;;;;;;;;;;;;;;;13.73;100.00;99114.00;5095263;28;19916;-57
2023/10/19 08:10:37;;;;;;;;;;;;;;;13.77;100.00;99104.47;5094717;28;19991;-57
2023/10/19 08:13:03;;;;;;;;;;;;;;;13.81;100.00;99100.97;5095527;28;19916;-57
2023/10/19 08:15:31;;;;;;;;;;;;;;;13.85;100.00;99091.44;5094994;28;19916;-58
2023/10/19 08:17:56;;;;;;;;;;;;;;;13.87;100.00;99106.09;5094516;28;19916;-58
2023/10/19 08:20:31;;;;;;;;;;;;;;;13.90;100.00;99100.03;5095256;28;19942;-57
2023/10/19 08:22:57;;;;;;;;;;;;;;;13.90;100.00;99100.03;5095498;28;19946;-57
2023/10/19 08:25:22;;;;;;;;;;;;;;;13.93;100.00;99100.84;5094195;28;19924;-57
2023/10/19 08:27:51;;;;;;;;;;;;;;;13.98;100.00;99098.19;5095110;28;19968;-57
2023/10/19 08:30:21;;;;;;;;;;;;;;;14.02;100.00;99092.09;5094670;28;19923;-58
2023/10/19 08:32:47;;;;;;;;;;;;;;;14.08;100.00;99094.59;5094424;28;19920;-57
2023/10/19 08:35:14;;;;;;;;;;;;;;;14.14;100.00;99096.28;5094737;28;20355;-57
2023/10/19 08:37:39;;;;;;;;;;;;;;;14.23;100.00;99092.66;5095181;28;20000;-57
2023/10/19 08:40:06;;;;;;;;;;;;;;;14.30;100.00;99089.13;5094162;28;20374;-57
2023/10/19 08:42:31;;;;;;;;;;;;;;;14.36;100.00;99099.41;5094322;28;19999;-57
2023/10/19 08:44:59;;;;;;;;;;;;;;;14.44;100.00;99091.53;5095000;28;20038;-57
2023/10/19 08:47:25;;;;;;;;;;;;;;;14.50;100.00;99088.84;5093776;28;19920;-57
2023/10/19 08:49:51;;;;;;;;;;;;;;;14.51;100.00;99081.94;5094908;28;19916;-57
2023/10/19 08:52:17;;;;;;;;;;;;;;;14.53;100.00;99085.38;5093728;28;19998;-58
2023/10/19 08:54:43;;;;;;;;;;;;;;;14.62;100.00;99083.47;5094600;28;19962;-57
2023/10/19 08:57:09;;;;;;;;;;;;;;;14.82;100.00;99087.50;5094494;28;19920;-57
2023/10/19 08:59:34;;;;;;;;;;;;;;;15.06;100.00;99090.59;5093351;28;20542;-57
2023/10/19 09:02:02;;;;;;;;;;;;;;;15.25;100.00;99093.75;5094627;28;20010;-57
2023/10/19 09:04:28;;;;;;;;;;;;;;;15.41;100.00;99087.38;5094099;28;19925;-57
2023/10/19 09:06:55;;;;;;;;;;;;;;;15.62;100.00;99095.63;5093770;28;19942;-57
2023/10/19 09:09:20;;;;;;;;;;;;;;;15.85;100.00;99086.56;5094148;28;19961;-57
2023/10/19 09:11:48;;;;;;;;;;;;;;;16.04;100.00;99085.31;5094257;28;19924;-57
2023/10/19 09:14:14;;;;;;;;;;;;;;;16.29;100.00;99082.16;5093388;28;20032;-57
2023/10/19 09:16:55;;;;;;;;;;;;;;;16.52;100.00;99073.00;5094382;28;19962;-57
2023/10/19 09:19:21;;;;;;;;;;;;;;;16.78;100.00;99070.63;5093933;28;19920;-57
2023/10/19 09:21:46;;;;;;;;;;;;;;;17.04;100.00;99063.09;5093367;28;19961;-57
2023/10/19 09:24:11;;;;;;;;;;;;;;;17.27;100.00;99062.50;5093911;28;19920;-57
2023/10/19 09:26:37;;;;;;;;;;;;;;;17.55;100.00;99062.59;5093989;28;20001;-57
2023/10/19 09:29:03;;;;;;;;;;;;;;;17.63;100.00;99059.78;5093406;28;19918;-57
2023/10/19 09:31:30;;;;;;;;;;;;;;;17.48;100.00;99057.59;5093796;28;19969;-57
2023/10/19 09:33:56;;;;;;;;;;;;;;;17.40;100.00;99058.69;5094104;28;19935;-57
2023/10/19 09:36:25;;;;;;;;;;;;;;;17.33;100.00;99061.50;5092916;28;19951;-58
2023/10/19 09:38:51;;;;;;;;;;;;;;;17.56;100.00;99059.09;5093850;28;19923;-58
2023/10/19 09:41:21;;;;;;;;;;;;;;;17.96;100.00;99064.09;5093392;28;19916;-58
2023/10/19 09:43:48;;;;;;;;;;;;;;;17.97;100.00;99065.81;5093131;28;19920;-57
2023/10/19 09:46:21;;;;;;;;;;;;;;;17.75;100.00;99069.88;5093328;28;19958;-58
2023/10/19 09:48:47;;;;;;;;;;;;;;;17.53;100.00;99074.81;5093047;28;20238;-58
2023/10/19 09:51:13;;;;;;;;;;;;;;;17.49;100.00;99072.34;5093239;28;20295;-58
2023/10/19 09:53:39;;;;;;;;;;;;;;;17.37;100.00;99070.94;5093644;28;19923;-58
2023/10/19 09:56:06;;;;;;;;;;;;;;;17.25;100.00;99070.34;5092670;28;20303;-58
2023/10/19 09:58:38;;;;;;;;;;;;;;;17.18;100.00;99067.94;5093338;28;20368;-58
2023/10/19 10:01:04;;;;;;;;;;;;;;;17.13;100.00;99059.41;5093284;28;19927;-58
2023/10/19 10:03:42;;;;;;;;;;;;;;;17.05;100.00;99052.63;5092408;28;19920;-57
2023/10/19 10:06:08;;;;;;;;;;;;;;;17.01;100.00;99043.19;5093326;28;19912;-58
2023/10/19 10:08:35;;;;;;;;;;;;;;;17.09;100.00;99037.78;5092801;28;19923;-58
2023/10/19 10:11:13;;;;;;;;;;;;;;;17.23;100.00;99038.28;5092699;28;19919;-58
2023/10/19 10:13:38;;;;;;;;;;;;;;;17.33;100.00;99033.69;5093296;28;20359;-58
2023/10/19 10:16:04;;;;;;;;;;;;;;;17.36;100.00;99035.34;5093345;28;19918;-58
2023/10/19 10:18:34;;;;;;;;;;;;;;;17.38;100.00;99044.00;5092114;28;19958;-58
2023/10/19 10:21:20;;;;;;;;;;;;;;;17.40;100.00;99042.19;5093533;28;19923;-58
2023/10/19 10:23:52;;;;;;;;;;;;;;;17.44;100.00;99060.31;5092637;28;19917;-58
2023/10/19 10:26:18;;;;;;;;;;;;;;;17.39;100.00;99059.56;5093026;28;20003;-58
2023/10/19 10:28:48;;;;;;;;;;;;;;;17.51;100.00;99052.31;5093078;28;20001;-58
2023/10/19 10:31:13;;;;;;;;;;;;;;;17.68;100.00;99052.69;5092308;28;19916;-58
2023/10/19 10:33:45;;;;;;;;;;;;;;;17.80;100.00;99048.88;5093331;28;19962;-58
2023/10/19 10:36:11;;;;;;;;;;;;;;;17.91;100.00;99056.41;5092973;28;19916;-58
2023/10/19 10:38:36;;;;;;;;;;;;;;;17.99;100.00;99057.03;5092377;28;20014;-58
2023/10/19 10:41:02;;;;;;;;;;;;;;;18.00;100.00;99052.66;5093147;28;20007;-58
2023/10/19 10:43:27;;;;;;;;;;;;;;;17.84;100.00;99060.06;5092756;28;19964;-58
2023/10/19 10:45:52;;;;;;;;;;;;;;;17.71;100.00;99051.75;5092528;28;19916;-58
2023/10/19 10:48:19;;;;;;;;;;;;;;;17.58;100.00;99040.81;5092764;28;19917;-58
2023/10/19 10:50:45;;;;;;;;;;;;;;;17.46;100.00;99046.38;5092966;28;20360;-58
2023/10/19 10:53:11;;;;;;;;;;;;;;;17.45;100.00;99055.94;5091910;28;19916;-58
2023/10/19 10:55:37;;;;;;;;;;;;;;;17.60;100.00;99059.88;5093025;28;19966;-59
2023/10/19 10:58:02;;;;;;;;;;;;;;;17.72;100.00;99054.31;5092885;28;19920;-58
2023/10/19 11:00:27;;;;;;;;;;;;;;;17.82;100.00;99060.13;5091599;28;19927;-58
2023/10/19 11:03:08;;;;;;;;;;;;;;;17.98;100.00;99060.53;5093062;28;19916;-58
2023/10/19 11:05:35;;;;;;;;;;;;;;;18.10;100.00;99060.19;5092651;28;19928;-58
2023/10/19 11:08:09;;;;;;;;;;;;;;;18.10;100.00;99059.31;5092130;28;19916;-58
2023/10/19 11:10:36;;;;;;;;;;;;;;;17.94;100.00;99053.72;5092856;28;20007;-57
2023/10/19 11:13:02;;;;;;;;;;;;;;;17.76;100.00;99052.47;5091952;28;20359;-58
2023/10/19 11:15:27;;;;;;;;;;;;;;;17.62;100.00;99042.44;5092651;28;19916;-58
2023/10/19 11:17:52;;;;;;;;;;;;;;;17.56;100.00;99032.22;5092927;28;19924;-58
2023/10/19 11:20:21;;;;;;;;;;;;;;;17.59;100.00;99039.94;5092315;28;19916;-58
2023/10/19 11:22:51;;;;;;;;;;;;;;;17.56;100.00;99032.22;5096292;28;19916;-58
2023/10/19 11:25:20;;;;;;;;;;;;;;;17.56;100.00;99024.41;5095898;28;19990;-58
2023/10/19 11:27:47;;;;;;;;;;;;;;;17.60;100.00;99021.66;5095687;28;19924;-58
2023/10/19 11:30:12;;;;;;;;;;;;;;;17.72;100.00;99025.63;5096199;28;19916;-58
2023/10/19 11:32:38;;;;;;;;;;;;;;;17.84;100.00;99020.97;5096638;28;19912;-58
2023/10/19 11:35:03;;;;;;;;;;;;;;;18.06;100.00;99021.22;5095507;28;19920;-58
2023/10/19 11:37:28;;;;;;;;;;;;;;;18.18;100.00;99009.53;5095905;28;19923;-58
2023/10/19 11:39:54;;;;;;;;;;;;;;;18.17;100.00;99013.06;5096067;28;20278;-58
2023/10/19 11:42:19;;;;;;;;;;;;;;;18.06;100.00;99009.06;5095048;28;19920;-57
2023/10/19 11:44:45;;;;;;;;;;;;;;;17.94;100.00;98994.63;5095913;28;19923;-58
2023/10/19 11:47:10;;;;;;;;;;;;;;;17.83;100.00;98996.69;5095733;28;19922;-58
2023/10/19 11:49:36;;;;;;;;;;;;;;;17.79;100.00;98992.44;5095206;28;19945;-58
2023/10/19 11:52:04;;;;;;;;;;;;;;;17.72;100.00;98996.16;5095906;28;19923;-58
2023/10/19 11:54:29;;;;;;;;;;;;;;;17.64;100.00;98993.75;5095760;28;20470;-58
2023/10/19 11:56:54;;;;;;;;;;;;;;;17.57;100.00;98992.22;5094930;28;20336;-58
2023/10/19 11:59:20;;;;;;;;;;;;;;;17.47;100.00;98993.38;5095492;28;19916;-58
2023/10/19 12:01:45;;;;;;;;;;;;;;;17.33;100.00;98992.03;5095454;28;19938;-58
2023/10/19 12:04:10;;;;;;;;;;;;;;;17.20;100.00;98990.69;5094639;28;19916;-58
2023/10/19 12:06:35;;;;;;;;;;;;;;;17.08;100.00;98989.22;5095755;28;20030;-58
2023/10/19 12:09:14;;;;;;;;;;;;;;;16.96;100.00;98985.22;5095563;28;19916;-58
2023/10/19 12:11:40;;;;;;;;;;;;;;;16.84;100.00;99001.13;5095429;28;19916;-58
2023/10/19 12:14:06;;;;;;;;;;;;;;;16.69;100.00;98997.16;5095519;28;19995;-58
2023/10/19 12:16:32;;;;;;;;;;;;;;;16.58;100.00;98989.66;5094216;28;20311;-58
2023/10/19 12:18:58;;;;;;;;;;;;;;;16.51;100.00;98982.88;5095269;28;19916;-58
2023/10/19 12:21:27;;;;;;;;;;;;;;;16.45;100.00;98984.72;5095037;28;19916;-58
2023/10/19 12:23:55;;;;;;;;;;;;;;;16.42;100.00;98984.81;5094729;28;19942;-58
2023/10/19 12:26:20;;;;;;;;;;;;;;;16.40;100.00;98980.53;5095119;28;19916;-58
2023/10/19 12:28:46;;;;;;;;;;;;;;;16.35;100.00;98977.22;5095318;28;20373;-57
2023/10/19 12:31:12;;;;;;;;;;;;;;;16.34;100.00;98978.94;5093768;28;20010;-58
2023/10/19 12:33:38;;;;;;;;;;;;;;;16.34;100.00;98972.91;5095271;28;19917;-58
2023/10/19 12:36:22;;;;;;;;;;;;;;;16.35;100.00;98977.22;5094972;28;20356;-58
2023/10/19 12:38:48;;;;;;;;;;;;;;;16.34;100.00;98973.72;5094355;28;19923;-58
2023/10/19 12:41:14;;;;;;;;;;;;;;;16.34;100.00;98971.13;5094712;28;19917;-58
2023/10/19 12:43:39;;;;;;;;;;;;;;;16.31;100.00;98981.63;5094785;28;20412;-58
2023/10/19 12:46:08;;;;;;;;;;;;;;;16.29;100.00;98975.59;5094003;28;19916;-57
2023/10/19 12:48:34;;;;;;;;;;;;;;;16.28;100.00;98979.06;5094521;28;20045;-58
2023/10/19 12:51:01;;;;;;;;;;;;;;;16.26;100.00;98975.69;5094903;28;19916;-57
2023/10/19 12:53:26;;;;;;;;;;;;;;;16.24;100.00;98972.25;5093762;28;19942;-58